KIV weather

Chişinău International Airport
Chişinău, Chişinău, Moldova

Public forecast

Using degrees Celsius for public forecast. Weather courtesy of forecast.io.

Current aviation weather report (METAR) for Chişinău International Airport

Retrieved 2020/07/10 19:30 UTC (0 seconds ago):

LUKK 101930Z 19007KT CAVOK 25/13 Q1019 R08/CLRD// NOSIG

Aviation forecast (TAF) for Chişinău International Airport

Retrieved 2020/07/10 18:24 UTC (57 minutes ago):

TAF TAF LUKK 101720Z 1018/1118 18008KT CAVOK BECMG 1020/1022 VRB04KT BECMG 1107/1109 16008KT